sensor_id;sensor_type;location;lat;lon;timestamp;temperature;humidity
42755;DHT22;28407;51.830;5.684;2023-02-26T00:01:12;4.50;69.10
42755;DHT22;28407;51.830;5.684;2023-02-26T00:03:13;4.50;69.10
42755;DHT22;28407;51.830;5.684;2023-02-26T00:05:15;4.50;69.10
42755;DHT22;28407;51.830;5.684;2023-02-26T00:07:16;4.50;69.20
42755;DHT22;28407;51.830;5.684;2023-02-26T00:09:16;4.50;69.20
42755;DHT22;28407;51.830;5.684;2023-02-26T00:11:17;4.50;69.30
42755;DHT22;28407;51.830;5.684;2023-02-26T00:13:18;4.50;69.30
42755;DHT22;28407;51.830;5.684;2023-02-26T00:15:19;4.50;69.30
42755;DHT22;28407;51.830;5.684;2023-02-26T00:17:29;4.50;69.40
42755;DHT22;28407;51.830;5.684;2023-02-26T00:19:31;4.50;69.40
42755;DHT22;28407;51.830;5.684;2023-02-26T00:21:32;4.60;69.50
42755;DHT22;28407;51.830;5.684;2023-02-26T00:23:33;4.50;69.40
42755;DHT22;28407;51.830;5.684;2023-02-26T00:25:34;4.50;69.40
42755;DHT22;28407;51.830;5.684;2023-02-26T00:27:35;4.50;69.50
42755;DHT22;28407;51.830;5.684;2023-02-26T00:29:36;4.50;69.50
42755;DHT22;28407;51.830;5.684;2023-02-26T00:31:37;4.50;69.50
42755;DHT22;28407;51.830;5.684;2023-02-26T00:33:38;4.50;69.60
42755;DHT22;28407;51.830;5.684;2023-02-26T00:35:39;4.50;69.60
42755;DHT22;28407;51.830;5.684;2023-02-26T00:42:29;4.50;69.80
42755;DHT22;28407;51.830;5.684;2023-02-26T00:44:31;4.50;69.80
42755;DHT22;28407;51.830;5.684;2023-02-26T00:47:00;4.50;69.90
42755;DHT22;28407;51.830;5.684;2023-02-26T00:49:17;4.40;69.90
42755;DHT22;28407;51.830;5.684;2023-02-26T00:51:31;4.50;69.90
42755;DHT22;28407;51.830;5.684;2023-02-26T00:56:08;4.40;69.80
42755;DHT22;28407;51.830;5.684;2023-02-26T00:58:08;4.40;69.80
42755;DHT22;28407;51.830;5.684;2023-02-26T01:00:10;4.40;69.80
42755;DHT22;28407;51.830;5.684;2023-02-26T01:02:11;4.40;69.80
42755;DHT22;28407;51.830;5.684;2023-02-26T01:04:14;4.40;69.90
42755;DHT22;28407;51.830;5.684;2023-02-26T01:06:18;4.40;69.80
42755;DHT22;28407;51.830;5.684;2023-02-26T01:08:30;4.40;69.90
42755;DHT22;28407;51.830;5.684;2023-02-26T01:10:33;4.40;70.50
42755;DHT22;28407;51.830;5.684;2023-02-26T01:12:34;4.40;69.90
42755;DHT22;28407;51.830;5.684;2023-02-26T01:14:36;4.40;69.80
42755;DHT22;28407;51.830;5.684;2023-02-26T01:16:56;4.40;69.90
42755;DHT22;28407;51.830;5.684;2023-02-26T01:19:02;4.40;69.90
42755;DHT22;28407;51.830;5.684;2023-02-26T01:21:06;4.40;69.90
42755;DHT22;28407;51.830;5.684;2023-02-26T01:23:13;4.30;69.90
42755;DHT22;28407;51.830;5.684;2023-02-26T01:25:23;4.30;69.90
42755;DHT22;28407;51.830;5.684;2023-02-26T01:27:25;4.30;69.90
42755;DHT22;28407;51.830;5.684;2023-02-26T01:29:25;4.30;69.90
42755;DHT22;28407;51.830;5.684;2023-02-26T01:31:42;4.30;69.90
42755;DHT22;28407;51.830;5.684;2023-02-26T01:33:52;4.30;70.00
42755;DHT22;28407;51.830;5.684;2023-02-26T01:36:00;4.30;69.90
42755;DHT22;28407;51.830;5.684;2023-02-26T01:38:03;4.30;69.90
42755;DHT22;28407;51.830;5.684;2023-02-26T01:40:30;4.30;69.90
42755;DHT22;28407;51.830;5.684;2023-02-26T01:42:35;4.30;69.90
42755;DHT22;28407;51.830;5.684;2023-02-26T01:44:46;4.30;69.80
42755;DHT22;28407;51.830;5.684;2023-02-26T01:49:16;4.30;69.70
42755;DHT22;28407;51.830;5.684;2023-02-26T01:51:19;4.30;69.70
42755;DHT22;28407;51.830;5.684;2023-02-26T01:53:39;4.30;69.70
42755;DHT22;28407;51.830;5.684;2023-02-26T01:55:42;4.30;69.70
42755;DHT22;28407;51.830;5.684;2023-02-26T01:57:44;4.20;69.70
42755;DHT22;28407;51.830;5.684;2023-02-26T01:59:49;4.20;69.70
42755;DHT22;28407;51.830;5.684;2023-02-26T02:01:55;4.20;69.70
42755;DHT22;28407;51.830;5.684;2023-02-26T02:03:57;4.20;69.70
42755;DHT22;28407;51.830;5.684;2023-02-26T02:06:03;4.20;69.70
42755;DHT22;28407;51.830;5.684;2023-02-26T02:08:06;4.20;69.80
42755;DHT22;28407;51.830;5.684;2023-02-26T02:10:08;4.20;69.70
42755;DHT22;28407;51.830;5.684;2023-02-26T02:14:47;4.20;69.70
42755;DHT22;28407;51.830;5.684;2023-02-26T02:16:54;4.20;69.70
42755;DHT22;28407;51.830;5.684;2023-02-26T02:24:16;4.10;69.70
42755;DHT22;28407;51.830;5.684;2023-02-26T02:26:43;4.10;69.70
42755;DHT22;28407;51.830;5.684;2023-02-26T02:31:49;4.10;69.70
42755;DHT22;28407;51.830;5.684;2023-02-26T02:34:00;4.10;69.70
42755;DHT22;28407;51.830;5.684;2023-02-26T02:36:19;4.00;69.70
42755;DHT22;28407;51.830;5.684;2023-02-26T02:38:30;4.00;69.80
42755;DHT22;28407;51.830;5.684;2023-02-26T02:40:39;4.00;69.90
42755;DHT22;28407;51.830;5.684;2023-02-26T02:42:51;3.90;69.90
42755;DHT22;28407;51.830;5.684;2023-02-26T02:44:58;4.00;69.90
42755;DHT22;28407;51.830;5.684;2023-02-26T02:47:02;4.00;69.90
42755;DHT22;28407;51.830;5.684;2023-02-26T02:49:12;3.90;69.80
42755;DHT22;28407;51.830;5.684;2023-02-26T02:51:36;3.90;69.80
42755;DHT22;28407;51.830;5.684;2023-02-26T02:53:43;3.90;69.80
42755;DHT22;28407;51.830;5.684;2023-02-26T02:56:01;3.90;69.80
42755;DHT22;28407;51.830;5.684;2023-02-26T02:58:14;3.90;69.80
42755;DHT22;28407;51.830;5.684;2023-02-26T03:00:18;3.90;69.80
42755;DHT22;28407;51.830;5.684;2023-02-26T03:04:45;3.90;69.90
42755;DHT22;28407;51.830;5.684;2023-02-26T03:06:47;3.90;69.80
42755;DHT22;28407;51.830;5.684;2023-02-26T03:08:52;3.80;69.70
42755;DHT22;28407;51.830;5.684;2023-02-26T03:10:53;3.80;69.80
42755;DHT22;28407;51.830;5.684;2023-02-26T03:12:54;3.80;69.80
42755;DHT22;28407;51.830;5.684;2023-02-26T03:14:54;3.80;69.80
42755;DHT22;28407;51.830;5.684;2023-02-26T03:22:31;3.90;69.70
42755;DHT22;28407;51.830;5.684;2023-02-26T03:24:39;3.80;69.60
42755;DHT22;28407;51.830;5.684;2023-02-26T03:26:51;3.80;69.60
42755;DHT22;28407;51.830;5.684;2023-02-26T03:29:03;3.80;69.60
42755;DHT22;28407;51.830;5.684;2023-02-26T03:31:30;3.80;69.70
42755;DHT22;28407;51.830;5.684;2023-02-26T03:35:53;3.70;69.50
42755;DHT22;28407;51.830;5.684;2023-02-26T03:37:59;3.70;69.40
42755;DHT22;28407;51.830;5.684;2023-02-26T03:40:07;3.70;69.40
42755;DHT22;28407;51.830;5.684;2023-02-26T03:44:31;3.70;69.40
42755;DHT22;28407;51.830;5.684;2023-02-26T03:46:38;3.70;69.30
42755;DHT22;28407;51.830;5.684;2023-02-26T03:48:42;3.70;69.40
42755;DHT22;28407;51.830;5.684;2023-02-26T03:50:48;3.70;69.30
42755;DHT22;28407;51.830;5.684;2023-02-26T03:53:13;3.70;69.30
42755;DHT22;28407;51.830;5.684;2023-02-26T03:58:06;3.70;69.20
42755;DHT22;28407;51.830;5.684;2023-02-26T04:00:18;3.70;69.20
42755;DHT22;28407;51.830;5.684;2023-02-26T04:02:29;3.60;69.10
42755;DHT22;28407;51.830;5.684;2023-02-26T04:04:43;3.60;69.00
42755;DHT22;28407;51.830;5.684;2023-02-26T04:06:46;3.60;69.00
42755;DHT22;28407;51.830;5.684;2023-02-26T04:08:47;3.60;69.00
42755;DHT22;28407;51.830;5.684;2023-02-26T04:10:56;3.60;68.90
42755;DHT22;28407;51.830;5.684;2023-02-26T04:12:59;3.60;68.90
42755;DHT22;28407;51.830;5.684;2023-02-26T04:15:01;3.60;69.00
42755;DHT22;28407;51.830;5.684;2023-02-26T04:17:02;3.60;69.00
42755;DHT22;28407;51.830;5.684;2023-02-26T04:19:03;3.50;69.00
42755;DHT22;28407;51.830;5.684;2023-02-26T04:21:04;3.50;69.00
42755;DHT22;28407;51.830;5.684;2023-02-26T04:23:07;3.50;69.00
42755;DHT22;28407;51.830;5.684;2023-02-26T04:25:08;3.50;69.10
42755;DHT22;28407;51.830;5.684;2023-02-26T04:27:09;3.50;69.10
42755;DHT22;28407;51.830;5.684;2023-02-26T04:29:10;3.50;69.70
42755;DHT22;28407;51.830;5.684;2023-02-26T04:31:11;3.50;69.00
42755;DHT22;28407;51.830;5.684;2023-02-26T04:33:14;3.40;69.00
42755;DHT22;28407;51.830;5.684;2023-02-26T04:35:15;3.40;69.00
42755;DHT22;28407;51.830;5.684;2023-02-26T04:37:16;3.40;69.00
42755;DHT22;28407;51.830;5.684;2023-02-26T04:39:17;3.40;69.00
42755;DHT22;28407;51.830;5.684;2023-02-26T04:41:18;3.40;69.70
42755;DHT22;28407;51.830;5.684;2023-02-26T04:43:22;3.40;69.00
42755;DHT22;28407;51.830;5.684;2023-02-26T04:45:34;3.40;69.00
42755;DHT22;28407;51.830;5.684;2023-02-26T04:47:35;3.40;68.90
42755;DHT22;28407;51.830;5.684;2023-02-26T04:49:36;3.40;68.90
42755;DHT22;28407;51.830;5.684;2023-02-26T04:51:38;3.40;68.90
42755;DHT22;28407;51.830;5.684;2023-02-26T04:53:41;3.30;68.80
42755;DHT22;28407;51.830;5.684;2023-02-26T04:55:42;3.30;68.80
42755;DHT22;28407;51.830;5.684;2023-02-26T04:57:42;3.30;68.80
42755;DHT22;28407;51.830;5.684;2023-02-26T04:59:44;3.30;68.80
42755;DHT22;28407;51.830;5.684;2023-02-26T05:01:46;3.30;68.80
42755;DHT22;28407;51.830;5.684;2023-02-26T05:03:47;3.30;68.80
42755;DHT22;28407;51.830;5.684;2023-02-26T05:05:48;3.30;68.80
42755;DHT22;28407;51.830;5.684;2023-02-26T05:07:49;3.30;68.80
42755;DHT22;28407;51.830;5.684;2023-02-26T05:09:53;3.30;68.80
42755;DHT22;28407;51.830;5.684;2023-02-26T05:11:56;3.20;68.70
42755;DHT22;28407;51.830;5.684;2023-02-26T05:13:57;3.20;68.70
42755;DHT22;28407;51.830;5.684;2023-02-26T05:15:58;3.20;68.70
42755;DHT22;28407;51.830;5.684;2023-02-26T05:17:58;3.20;68.60
42755;DHT22;28407;51.830;5.684;2023-02-26T05:19:59;3.20;68.60
42755;DHT22;28407;51.830;5.684;2023-02-26T05:22:00;3.20;68.60
42755;DHT22;28407;51.830;5.684;2023-02-26T05:24:01;3.20;68.50
42755;DHT22;28407;51.830;5.684;2023-02-26T05:26:02;3.20;68.50
42755;DHT22;28407;51.830;5.684;2023-02-26T05:28:03;3.20;68.40
42755;DHT22;28407;51.830;5.684;2023-02-26T05:30:05;3.20;68.40
42755;DHT22;28407;51.830;5.684;2023-02-26T05:32:07;3.20;68.40
42755;DHT22;28407;51.830;5.684;2023-02-26T05:34:08;3.20;68.30
42755;DHT22;28407;51.830;5.684;2023-02-26T05:36:09;3.20;68.30
42755;DHT22;28407;51.830;5.684;2023-02-26T05:38:10;3.20;68.30
42755;DHT22;28407;51.830;5.684;2023-02-26T05:40:11;3.20;68.20
42755;DHT22;28407;51.830;5.684;2023-02-26T05:42:12;3.20;68.20
42755;DHT22;28407;51.830;5.684;2023-02-26T05:44:12;3.20;68.10
42755;DHT22;28407;51.830;5.684;2023-02-26T05:46:13;3.20;68.10
42755;DHT22;28407;51.830;5.684;2023-02-26T05:48:14;3.20;68.00
42755;DHT22;28407;51.830;5.684;2023-02-26T05:50:14;3.20;68.10
42755;DHT22;28407;51.830;5.684;2023-02-26T05:52:15;3.20;68.00
42755;DHT22;28407;51.830;5.684;2023-02-26T05:54:16;3.10;67.90
42755;DHT22;28407;51.830;5.684;2023-02-26T05:56:16;3.20;68.00
42755;DHT22;28407;51.830;5.684;2023-02-26T05:58:17;3.10;67.90
42755;DHT22;28407;51.830;5.684;2023-02-26T06:00:18;3.10;67.90
42755;DHT22;28407;51.830;5.684;2023-02-26T06:02:19;3.10;67.90
42755;DHT22;28407;51.830;5.684;2023-02-26T06:04:19;3.10;67.90
42755;DHT22;28407;51.830;5.684;2023-02-26T06:06:20;3.10;68.00
42755;DHT22;28407;51.830;5.684;2023-02-26T06:08:21;3.00;67.90
42755;DHT22;28407;51.830;5.684;2023-02-26T06:10:21;3.10;67.90
42755;DHT22;28407;51.830;5.684;2023-02-26T06:12:22;3.00;67.80
42755;DHT22;28407;51.830;5.684;2023-02-26T06:14:23;3.00;67.80
42755;DHT22;28407;51.830;5.684;2023-02-26T06:16:24;3.10;67.80
42755;DHT22;28407;51.830;5.684;2023-02-26T06:18:25;3.00;67.70
42755;DHT22;28407;51.830;5.684;2023-02-26T06:20:26;3.00;67.70
42755;DHT22;28407;51.830;5.684;2023-02-26T06:22:27;3.00;67.70
42755;DHT22;28407;51.830;5.684;2023-02-26T06:24:28;3.00;67.70
42755;DHT22;28407;51.830;5.684;2023-02-26T06:26:29;3.00;67.70
42755;DHT22;28407;51.830;5.684;2023-02-26T06:28:29;3.00;67.60
42755;DHT22;28407;51.830;5.684;2023-02-26T06:30:30;3.00;67.60
42755;DHT22;28407;51.830;5.684;2023-02-26T06:32:31;3.00;67.60
42755;DHT22;28407;51.830;5.684;2023-02-26T06:34:32;2.90;67.50
42755;DHT22;28407;51.830;5.684;2023-02-26T06:36:33;2.90;67.60
42755;DHT22;28407;51.830;5.684;2023-02-26T06:38:34;2.90;67.50
42755;DHT22;28407;51.830;5.684;2023-02-26T06:40:34;2.90;67.60
42755;DHT22;28407;51.830;5.684;2023-02-26T06:42:35;2.90;67.50
42755;DHT22;28407;51.830;5.684;2023-02-26T06:44:36;2.90;67.50
42755;DHT22;28407;51.830;5.684;2023-02-26T06:46:36;2.90;67.50
42755;DHT22;28407;51.830;5.684;2023-02-26T06:48:37;2.90;67.50
42755;DHT22;28407;51.830;5.684;2023-02-26T06:50:38;2.90;67.50
42755;DHT22;28407;51.830;5.684;2023-02-26T06:52:39;2.90;67.50
42755;DHT22;28407;51.830;5.684;2023-02-26T06:54:39;2.90;67.50
42755;DHT22;28407;51.830;5.684;2023-02-26T06:56:40;2.80;67.50
42755;DHT22;28407;51.830;5.684;2023-02-26T06:58:41;2.90;68.10
42755;DHT22;28407;51.830;5.684;2023-02-26T07:00:42;2.80;67.50
42755;DHT22;28407;51.830;5.684;2023-02-26T07:02:43;2.80;67.50
42755;DHT22;28407;51.830;5.684;2023-02-26T07:04:44;2.80;67.40
42755;DHT22;28407;51.830;5.684;2023-02-26T07:06:47;2.80;67.40
42755;DHT22;28407;51.830;5.684;2023-02-26T07:08:48;2.90;67.50
42755;DHT22;28407;51.830;5.684;2023-02-26T07:10:49;2.90;67.40
42755;DHT22;28407;51.830;5.684;2023-02-26T07:12:50;2.90;67.30
42755;DHT22;28407;51.830;5.684;2023-02-26T07:14:51;2.90;67.40
42755;DHT22;28407;51.830;5.684;2023-02-26T07:16:51;2.90;67.40
42755;DHT22;28407;51.830;5.684;2023-02-26T07:18:52;2.90;67.40
42755;DHT22;28407;51.830;5.684;2023-02-26T07:20:53;2.90;67.30
42755;DHT22;28407;51.830;5.684;2023-02-26T07:22:53;2.90;67.30
42755;DHT22;28407;51.830;5.684;2023-02-26T07:24:54;2.90;67.30
42755;DHT22;28407;51.830;5.684;2023-02-26T07:26:55;2.90;67.30
42755;DHT22;28407;51.830;5.684;2023-02-26T07:28:56;2.90;67.30
42755;DHT22;28407;51.830;5.684;2023-02-26T07:30:57;2.90;67.30
42755;DHT22;28407;51.830;5.684;2023-02-26T07:32:57;2.90;67.30
42755;DHT22;28407;51.830;5.684;2023-02-26T07:34:58;2.90;67.20
42755;DHT22;28407;51.830;5.684;2023-02-26T07:36:59;3.00;67.20
42755;DHT22;28407;51.830;5.684;2023-02-26T07:38:59;3.00;67.30
42755;DHT22;28407;51.830;5.684;2023-02-26T07:41:00;3.00;67.30
42755;DHT22;28407;51.830;5.684;2023-02-26T07:43:01;3.00;67.80
42755;DHT22;28407;51.830;5.684;2023-02-26T07:45:02;3.00;67.20
42755;DHT22;28407;51.830;5.684;2023-02-26T07:47:03;2.90;67.30
42755;DHT22;28407;51.830;5.684;2023-02-26T07:49:03;3.00;67.50
42755;DHT22;28407;51.830;5.684;2023-02-26T07:51:04;3.10;67.50
42755;DHT22;28407;51.830;5.684;2023-02-26T07:53:07;3.10;67.50
42755;DHT22;28407;51.830;5.684;2023-02-26T07:55:10;3.10;67.50
42755;DHT22;28407;51.830;5.684;2023-02-26T07:57:11;3.10;67.50
42755;DHT22;28407;51.830;5.684;2023-02-26T07:59:12;3.20;67.50
42755;DHT22;28407;51.830;5.684;2023-02-26T08:01:13;3.20;67.40
42755;DHT22;28407;51.830;5.684;2023-02-26T08:03:13;3.30;67.50
42755;DHT22;28407;51.830;5.684;2023-02-26T08:05:14;3.30;67.50
42755;DHT22;28407;51.830;5.684;2023-02-26T08:07:15;3.30;67.60
42755;DHT22;28407;51.830;5.684;2023-02-26T08:09:16;3.40;67.60
42755;DHT22;28407;51.830;5.684;2023-02-26T08:11:16;3.40;68.10
42755;DHT22;28407;51.830;5.684;2023-02-26T08:13:17;3.50;67.40
42755;DHT22;28407;51.830;5.684;2023-02-26T08:15:18;3.50;67.40
42755;DHT22;28407;51.830;5.684;2023-02-26T08:17:19;3.50;67.40
42755;DHT22;28407;51.830;5.684;2023-02-26T08:19:20;3.50;67.40
42755;DHT22;28407;51.830;5.684;2023-02-26T08:21:21;3.50;67.50
42755;DHT22;28407;51.830;5.684;2023-02-26T08:23:21;3.50;67.60
42755;DHT22;28407;51.830;5.684;2023-02-26T08:25:22;3.60;67.60
42755;DHT22;28407;51.830;5.684;2023-02-26T08:27:23;3.60;67.50
42755;DHT22;28407;51.830;5.684;2023-02-26T08:29:23;3.60;67.50
42755;DHT22;28407;51.830;5.684;2023-02-26T08:31:24;3.60;67.30
42755;DHT22;28407;51.830;5.684;2023-02-26T08:33:28;3.60;67.30
42755;DHT22;28407;51.830;5.684;2023-02-26T08:35:29;3.60;67.40
42755;DHT22;28407;51.830;5.684;2023-02-26T08:37:30;3.60;67.40
42755;DHT22;28407;51.830;5.684;2023-02-26T08:39:31;3.70;67.50
42755;DHT22;28407;51.830;5.684;2023-02-26T08:41:34;3.60;67.40
42755;DHT22;28407;51.830;5.684;2023-02-26T08:43:35;3.70;67.50
42755;DHT22;28407;51.830;5.684;2023-02-26T08:45:37;3.60;67.40
42755;DHT22;28407;51.830;5.684;2023-02-26T08:47:37;3.70;67.50
42755;DHT22;28407;51.830;5.684;2023-02-26T08:49:42;3.70;67.60
42755;DHT22;28407;51.830;5.684;2023-02-26T08:51:43;3.70;67.50
42755;DHT22;28407;51.830;5.684;2023-02-26T08:53:44;3.70;67.40
42755;DHT22;28407;51.830;5.684;2023-02-26T08:55:50;3.80;67.50
42755;DHT22;28407;51.830;5.684;2023-02-26T08:57:51;3.80;67.40
42755;DHT22;28407;51.830;5.684;2023-02-26T08:59:52;3.80;67.20
42755;DHT22;28407;51.830;5.684;2023-02-26T09:01:53;3.80;67.20
42755;DHT22;28407;51.830;5.684;2023-02-26T09:03:53;3.80;67.20
42755;DHT22;28407;51.830;5.684;2023-02-26T09:05:54;3.80;67.10
42755;DHT22;28407;51.830;5.684;2023-02-26T09:07:54;3.80;67.10
42755;DHT22;28407;51.830;5.684;2023-02-26T09:09:55;3.80;67.20
42755;DHT22;28407;51.830;5.684;2023-02-26T09:11:56;3.90;67.20
42755;DHT22;28407;51.830;5.684;2023-02-26T09:13:57;3.90;67.00
42755;DHT22;28407;51.830;5.684;2023-02-26T09:15:58;3.90;67.00
42755;DHT22;28407;51.830;5.684;2023-02-26T09:17:59;3.90;67.00
42755;DHT22;28407;51.830;5.684;2023-02-26T09:20:00;3.90;67.00
42755;DHT22;28407;51.830;5.684;2023-02-26T09:22:00;3.90;67.00
42755;DHT22;28407;51.830;5.684;2023-02-26T09:24:01;4.00;67.10
42755;DHT22;28407;51.830;5.684;2023-02-26T09:26:02;4.00;67.00
42755;DHT22;28407;51.830;5.684;2023-02-26T09:28:03;4.00;66.90
42755;DHT22;28407;51.830;5.684;2023-02-26T09:30:05;4.00;66.80
42755;DHT22;28407;51.830;5.684;2023-02-26T09:32:06;4.00;66.70
42755;DHT22;28407;51.830;5.684;2023-02-26T09:34:08;4.00;66.80
42755;DHT22;28407;51.830;5.684;2023-02-26T09:36:09;4.00;66.70
42755;DHT22;28407;51.830;5.684;2023-02-26T09:38:10;4.00;66.40
42755;DHT22;28407;51.830;5.684;2023-02-26T09:41:05;4.00;66.00
42755;DHT22;28407;51.830;5.684;2023-02-26T09:45:31;3.90;66.00
42755;DHT22;28407;51.830;5.684;2023-02-26T09:47:44;4.00;66.00
42755;DHT22;28407;51.830;5.684;2023-02-26T09:49:51;4.00;65.90
42755;DHT22;28407;51.830;5.684;2023-02-26T09:51:57;4.00;65.80
42755;DHT22;28407;51.830;5.684;2023-02-26T09:54:12;4.00;65.50
42755;DHT22;28407;51.830;5.684;2023-02-26T09:56:17;4.00;65.40
42755;DHT22;28407;51.830;5.684;2023-02-26T10:00:43;4.00;65.20
42755;DHT22;28407;51.830;5.684;2023-02-26T10:14:08;4.20;63.60
42755;DHT22;28407;51.830;5.684;2023-02-26T10:16:17;4.20;63.40
42755;DHT22;28407;51.830;5.684;2023-02-26T10:18:25;4.20;63.10
42755;DHT22;28407;51.830;5.684;2023-02-26T10:25:46;4.30;62.50
42755;DHT22;28407;51.830;5.684;2023-02-26T10:30:02;4.30;62.10
42755;DHT22;28407;51.830;5.684;2023-02-26T10:32:25;4.30;61.80
42755;DHT22;28407;51.830;5.684;2023-02-26T10:34:34;4.30;62.00
42755;DHT22;28407;51.830;5.684;2023-02-26T10:37:02;4.30;61.80
42755;DHT22;28407;51.830;5.684;2023-02-26T10:39:18;4.30;61.80
42755;DHT22;28407;51.830;5.684;2023-02-26T10:41:24;4.40;62.00
42755;DHT22;28407;51.830;5.684;2023-02-26T10:43:36;4.40;61.80
42755;DHT22;28407;51.830;5.684;2023-02-26T10:47:48;4.40;61.50
42755;DHT22;28407;51.830;5.684;2023-02-26T10:49:54;4.40;61.30
42755;DHT22;28407;51.830;5.684;2023-02-26T10:51:57;4.50;61.20
42755;DHT22;28407;51.830;5.684;2023-02-26T10:54:20;4.50;61.10
42755;DHT22;28407;51.830;5.684;2023-02-26T10:56:29;4.50;60.70
42755;DHT22;28407;51.830;5.684;2023-02-26T10:58:30;4.50;60.60
42755;DHT22;28407;51.830;5.684;2023-02-26T11:00:32;4.50;59.90
42755;DHT22;28407;51.830;5.684;2023-02-26T11:02:41;4.60;60.30
42755;DHT22;28407;51.830;5.684;2023-02-26T11:04:42;4.60;60.20
42755;DHT22;28407;51.830;5.684;2023-02-26T11:06:50;4.60;60.00
42755;DHT22;28407;51.830;5.684;2023-02-26T11:08:54;4.70;59.80
42755;DHT22;28407;51.830;5.684;2023-02-26T11:10:57;4.80;60.00
42755;DHT22;28407;51.830;5.684;2023-02-26T11:12:58;4.70;59.80
42755;DHT22;28407;51.830;5.684;2023-02-26T11:15:00;4.80;59.80
42755;DHT22;28407;51.830;5.684;2023-02-26T11:17:06;4.80;59.60
42755;DHT22;28407;51.830;5.684;2023-02-26T11:19:11;4.90;59.80
42755;DHT22;28407;51.830;5.684;2023-02-26T11:21:18;4.90;59.30
42755;DHT22;28407;51.830;5.684;2023-02-26T11:23:22;4.90;59.50
42755;DHT22;28407;51.830;5.684;2023-02-26T11:25:29;4.90;59.30
42755;DHT22;28407;51.830;5.684;2023-02-26T11:27:37;5.00;59.10
42755;DHT22;28407;51.830;5.684;2023-02-26T11:29:41;5.00;59.20
42755;DHT22;28407;51.830;5.684;2023-02-26T11:31:42;5.00;58.90
42755;DHT22;28407;51.830;5.684;2023-02-26T11:33:58;5.10;59.10
42755;DHT22;28407;51.830;5.684;2023-02-26T11:36:01;5.10;59.00
42755;DHT22;28407;51.830;5.684;2023-02-26T11:38:02;5.10;58.70
42755;DHT22;28407;51.830;5.684;2023-02-26T11:40:26;5.20;58.80
42755;DHT22;28407;51.830;5.684;2023-02-26T11:42:28;5.20;58.80
42755;DHT22;28407;51.830;5.684;2023-02-26T11:44:46;5.30;58.70
42755;DHT22;28407;51.830;5.684;2023-02-26T11:46:54;5.30;58.60
42755;DHT22;28407;51.830;5.684;2023-02-26T11:48:59;5.40;58.10
42755;DHT22;28407;51.830;5.684;2023-02-26T11:51:03;5.40;57.80
42755;DHT22;28407;51.830;5.684;2023-02-26T11:53:06;5.40;57.70
42755;DHT22;28407;51.830;5.684;2023-02-26T11:55:20;5.50;58.00
42755;DHT22;28407;51.830;5.684;2023-02-26T11:57:27;5.50;58.00
42755;DHT22;28407;51.830;5.684;2023-02-26T11:59:31;5.60;58.20
42755;DHT22;28407;51.830;5.684;2023-02-26T12:01:32;5.70;58.10
42755;DHT22;28407;51.830;5.684;2023-02-26T12:03:36;5.80;58.10
42755;DHT22;28407;51.830;5.684;2023-02-26T12:05:40;5.80;57.80
42755;DHT22;28407;51.830;5.684;2023-02-26T12:07:41;5.90;57.60
42755;DHT22;28407;51.830;5.684;2023-02-26T12:09:43;5.90;57.70
42755;DHT22;28407;51.830;5.684;2023-02-26T12:19:41;6.20;57.20
42755;DHT22;28407;51.830;5.684;2023-02-26T12:26:34;6.40;56.60
42755;DHT22;28407;51.830;5.684;2023-02-26T12:28:42;6.40;56.80
42755;DHT22;28407;51.830;5.684;2023-02-26T12:38:24;6.70;55.80
42755;DHT22;28407;51.830;5.684;2023-02-26T12:50:20;7.00;55.60
42755;DHT22;28407;51.830;5.684;2023-02-26T12:52:51;7.00;55.60
42755;DHT22;28407;51.830;5.684;2023-02-26T12:55:16;7.20;55.40
42755;DHT22;28407;51.830;5.684;2023-02-26T12:59:50;7.30;55.60
42755;DHT22;28407;51.830;5.684;2023-02-26T13:02:24;7.40;55.40
42755;DHT22;28407;51.830;5.684;2023-02-26T13:09:06;7.60;55.00
42755;DHT22;28407;51.830;5.684;2023-02-26T13:12:03;7.70;55.20
42755;DHT22;28407;51.830;5.684;2023-02-26T13:13:48;7.70;55.00
42755;DHT22;28407;51.830;5.684;2023-02-26T13:18:33;7.80;54.80
42755;DHT22;28407;51.830;5.684;2023-02-26T13:20:39;7.90;55.00
42755;DHT22;28407;51.830;5.684;2023-02-26T13:22:49;8.00;55.10
42755;DHT22;28407;51.830;5.684;2023-02-26T13:25:18;8.00;54.80
42755;DHT22;28407;51.830;5.684;2023-02-26T13:27:16;8.10;54.80
42755;DHT22;28407;51.830;5.684;2023-02-26T13:29:28;8.20;54.50
42755;DHT22;28407;51.830;5.684;2023-02-26T13:31:37;8.20;54.30
42755;DHT22;28407;51.830;5.684;2023-02-26T13:33:42;8.20;54.50
42755;DHT22;28407;51.830;5.684;2023-02-26T13:35:44;8.30;54.10
42755;DHT22;28407;51.830;5.684;2023-02-26T13:37:48;8.30;54.30
42755;DHT22;28407;51.830;5.684;2023-02-26T13:42:46;8.40;54.30
42755;DHT22;28407;51.830;5.684;2023-02-26T13:51:51;8.60;54.30
42755;DHT22;28407;51.830;5.684;2023-02-26T13:54:06;8.60;54.40
42755;DHT22;28407;51.830;5.684;2023-02-26T13:58:40;8.60;53.70
42755;DHT22;28407;51.830;5.684;2023-02-26T14:00:45;8.60;53.90
42755;DHT22;28407;51.830;5.684;2023-02-26T14:02:56;8.60;53.80
42755;DHT22;28407;51.830;5.684;2023-02-26T14:04:59;8.70;53.80
42755;DHT22;28407;51.830;5.684;2023-02-26T14:07:10;8.70;53.50
42755;DHT22;28407;51.830;5.684;2023-02-26T14:09:55;8.70;53.80
42755;DHT22;28407;51.830;5.684;2023-02-26T14:11:45;8.80;53.90
42755;DHT22;28407;51.830;5.684;2023-02-26T14:16:21;8.90;53.80
42755;DHT22;28407;51.830;5.684;2023-02-26T14:18:30;8.80;53.40
42755;DHT22;28407;51.830;5.684;2023-02-26T14:20:34;8.80;53.50
42755;DHT22;28407;51.830;5.684;2023-02-26T14:22:36;8.80;53.50
42755;DHT22;28407;51.830;5.684;2023-02-26T14:26:50;8.90;53.10
42755;DHT22;28407;51.830;5.684;2023-02-26T14:28:57;8.90;52.90
42755;DHT22;28407;51.830;5.684;2023-02-26T14:31:18;8.90;52.90
42755;DHT22;28407;51.830;5.684;2023-02-26T14:33:27;8.90;53.00
42755;DHT22;28407;51.830;5.684;2023-02-26T14:35:32;9.00;52.90
42755;DHT22;28407;51.830;5.684;2023-02-26T14:37:34;9.00;52.80
42755;DHT22;28407;51.830;5.684;2023-02-26T14:39:44;9.00;52.70
42755;DHT22;28407;51.830;5.684;2023-02-26T14:41:46;9.00;52.60
42755;DHT22;28407;51.830;5.684;2023-02-26T14:43:59;9.00;52.50
42755;DHT22;28407;51.830;5.684;2023-02-26T14:46:02;9.00;52.50
42755;DHT22;28407;51.830;5.684;2023-02-26T14:48:11;9.00;52.20
42755;DHT22;28407;51.830;5.684;2023-02-26T14:50:19;9.00;52.10
42755;DHT22;28407;51.830;5.684;2023-02-26T14:59:52;9.00;52.30
42755;DHT22;28407;51.830;5.684;2023-02-26T15:06:33;9.00;52.20
42755;DHT22;28407;51.830;5.684;2023-02-26T15:10:53;9.00;52.20
42755;DHT22;28407;51.830;5.684;2023-02-26T15:15:34;8.80;52.60
42755;DHT22;28407;51.830;5.684;2023-02-26T15:20:03;8.70;52.50
42755;DHT22;28407;51.830;5.684;2023-02-26T15:24:30;8.70;52.80
42755;DHT22;28407;51.830;5.684;2023-02-26T15:26:32;8.60;52.90
42755;DHT22;28407;51.830;5.684;2023-02-26T15:28:37;8.60;52.70
42755;DHT22;28407;51.830;5.684;2023-02-26T15:30:39;8.50;52.80
42755;DHT22;28407;51.830;5.684;2023-02-26T15:32:41;8.40;53.10
42755;DHT22;28407;51.830;5.684;2023-02-26T15:34:45;8.40;53.10
42755;DHT22;28407;51.830;5.684;2023-02-26T15:36:49;8.40;53.20
42755;DHT22;28407;51.830;5.684;2023-02-26T15:38:58;8.30;53.20
42755;DHT22;28407;51.830;5.684;2023-02-26T15:41:01;8.30;53.90